Terminal Aerodrome Forecast
Issued by NWS

Home | Current Version | Previous Version | Text Only | Print | Product List | Glossary On
Versions: 1 2 3 4 5 6 7 8 9 10 11 12 13 14 15 16 17
000
FTAK31 PAJN 182102 AAA
TAFAWG
TAF AMD
PAWG 182102Z 1821/1918 12015G23KT 5SM -RA BR BKN030 OVC050
      WS020/13035KT
     FM190300 12012KT 6SM -SHRA BR SCT015 BKN035 OVC050
      WS020/14035KT
     FM190900 14006KT 4SM -SHRA BR BKN007 OVC015
      AMD LTD TO CLD VIS AND WIND 1906/1915=

USA.gov is the U.S. government's official web portal to all federal, state and local government web resources and services.